sensor_id;sensor_type;location;lat;lon;timestamp;temperature;humidity
15922;DHT22;8060;50.948;3.146;2024-03-06T00:00:04;8.20;99.90
15922;DHT22;8060;50.948;3.146;2024-03-06T00:02:34;8.20;99.90
15922;DHT22;8060;50.948;3.146;2024-03-06T00:05:03;8.20;99.90
15922;DHT22;8060;50.948;3.146;2024-03-06T00:07:31;8.10;99.90
15922;DHT22;8060;50.948;3.146;2024-03-06T00:09:59;8.10;99.90
15922;DHT22;8060;50.948;3.146;2024-03-06T00:12:28;8.10;99.90
15922;DHT22;8060;50.948;3.146;2024-03-06T00:14:56;8.10;99.90
15922;DHT22;8060;50.948;3.146;2024-03-06T00:17:26;8.10;99.90
15922;DHT22;8060;50.948;3.146;2024-03-06T00:19:54;8.10;99.90
15922;DHT22;8060;50.948;3.146;2024-03-06T00:22:22;8.10;99.90
15922;DHT22;8060;50.948;3.146;2024-03-06T00:24:50;8.10;99.90
15922;DHT22;8060;50.948;3.146;2024-03-06T00:27:19;8.10;99.90
15922;DHT22;8060;50.948;3.146;2024-03-06T00:29:47;8.10;99.90
15922;DHT22;8060;50.948;3.146;2024-03-06T00:32:15;8.10;99.90
15922;DHT22;8060;50.948;3.146;2024-03-06T00:34:45;8.10;99.90
15922;DHT22;8060;50.948;3.146;2024-03-06T00:37:13;8.00;99.90
15922;DHT22;8060;50.948;3.146;2024-03-06T00:39:41;8.00;99.90
15922;DHT22;8060;50.948;3.146;2024-03-06T00:42:09;8.00;99.90
15922;DHT22;8060;50.948;3.146;2024-03-06T00:44:40;8.10;99.90
15922;DHT22;8060;50.948;3.146;2024-03-06T00:47:08;8.00;99.90
15922;DHT22;8060;50.948;3.146;2024-03-06T00:49:37;8.00;99.90
15922;DHT22;8060;50.948;3.146;2024-03-06T00:52:07;8.10;99.90
15922;DHT22;8060;50.948;3.146;2024-03-06T00:54:36;8.10;99.90
15922;DHT22;8060;50.948;3.146;2024-03-06T00:57:04;8.00;99.90
15922;DHT22;8060;50.948;3.146;2024-03-06T00:59:32;8.00;99.90
15922;DHT22;8060;50.948;3.146;2024-03-06T01:02:01;7.90;99.90
15922;DHT22;8060;50.948;3.146;2024-03-06T01:04:29;8.00;99.90
15922;DHT22;8060;50.948;3.146;2024-03-06T01:06:57;8.00;99.90
15922;DHT22;8060;50.948;3.146;2024-03-06T01:09:27;8.00;99.90
15922;DHT22;8060;50.948;3.146;2024-03-06T01:11:56;8.00;99.90
15922;DHT22;8060;50.948;3.146;2024-03-06T01:14:24;8.00;99.90
15922;DHT22;8060;50.948;3.146;2024-03-06T01:16:52;8.00;99.90
15922;DHT22;8060;50.948;3.146;2024-03-06T01:19:20;8.00;99.90
15922;DHT22;8060;50.948;3.146;2024-03-06T01:21:49;8.00;99.90
15922;DHT22;8060;50.948;3.146;2024-03-06T01:24:17;8.00;99.90
15922;DHT22;8060;50.948;3.146;2024-03-06T01:26:47;7.90;99.90
15922;DHT22;8060;50.948;3.146;2024-03-06T01:29:15;7.90;99.90
15922;DHT22;8060;50.948;3.146;2024-03-06T01:31:45;7.90;99.90
15922;DHT22;8060;50.948;3.146;2024-03-06T01:34:13;7.90;99.90
15922;DHT22;8060;50.948;3.146;2024-03-06T01:36:42;7.90;99.90
15922;DHT22;8060;50.948;3.146;2024-03-06T01:39:10;7.90;99.90
15922;DHT22;8060;50.948;3.146;2024-03-06T01:41:44;7.90;99.90
15922;DHT22;8060;50.948;3.146;2024-03-06T01:44:14;7.80;99.90
15922;DHT22;8060;50.948;3.146;2024-03-06T01:46:43;7.80;99.90
15922;DHT22;8060;50.948;3.146;2024-03-06T01:49:12;7.90;99.90
15922;DHT22;8060;50.948;3.146;2024-03-06T01:51:54;7.80;99.90
15922;DHT22;8060;50.948;3.146;2024-03-06T01:54:23;7.80;99.90
15922;DHT22;8060;50.948;3.146;2024-03-06T01:56:52;7.80;99.90
15922;DHT22;8060;50.948;3.146;2024-03-06T01:59:25;7.80;99.90
15922;DHT22;8060;50.948;3.146;2024-03-06T02:02:03;7.70;99.90
15922;DHT22;8060;50.948;3.146;2024-03-06T02:04:32;7.70;99.90
15922;DHT22;8060;50.948;3.146;2024-03-06T02:07:01;7.70;99.90
15922;DHT22;8060;50.948;3.146;2024-03-06T02:09:30;7.70;99.90
15922;DHT22;8060;50.948;3.146;2024-03-06T02:11:58;7.60;99.90
15922;DHT22;8060;50.948;3.146;2024-03-06T02:14:29;7.60;99.90
15922;DHT22;8060;50.948;3.146;2024-03-06T02:16:57;7.60;99.90
15922;DHT22;8060;50.948;3.146;2024-03-06T02:19:39;7.60;99.90
15922;DHT22;8060;50.948;3.146;2024-03-06T02:22:10;7.60;99.90
15922;DHT22;8060;50.948;3.146;2024-03-06T02:24:44;7.60;99.90
15922;DHT22;8060;50.948;3.146;2024-03-06T02:27:13;7.60;99.90
15922;DHT22;8060;50.948;3.146;2024-03-06T02:29:41;7.60;99.90
15922;DHT22;8060;50.948;3.146;2024-03-06T02:32:11;7.60;99.90
15922;DHT22;8060;50.948;3.146;2024-03-06T02:34:40;7.60;99.90
15922;DHT22;8060;50.948;3.146;2024-03-06T02:37:09;7.60;99.90
15922;DHT22;8060;50.948;3.146;2024-03-06T02:39:38;7.60;99.90
15922;DHT22;8060;50.948;3.146;2024-03-06T02:42:06;7.50;99.90
15922;DHT22;8060;50.948;3.146;2024-03-06T02:44:35;7.50;99.90
15922;DHT22;8060;50.948;3.146;2024-03-06T02:47:03;7.50;99.90
15922;DHT22;8060;50.948;3.146;2024-03-06T02:49:31;7.50;99.90
15922;DHT22;8060;50.948;3.146;2024-03-06T02:52:00;7.50;99.90
15922;DHT22;8060;50.948;3.146;2024-03-06T02:54:30;7.50;99.90
15922;DHT22;8060;50.948;3.146;2024-03-06T02:56:58;7.50;99.90
15922;DHT22;8060;50.948;3.146;2024-03-06T02:59:26;7.50;99.90
15922;DHT22;8060;50.948;3.146;2024-03-06T03:01:54;7.50;99.90
15922;DHT22;8060;50.948;3.146;2024-03-06T03:04:22;7.60;99.90
15922;DHT22;8060;50.948;3.146;2024-03-06T03:06:50;7.60;99.90
15922;DHT22;8060;50.948;3.146;2024-03-06T03:09:18;7.60;99.90
15922;DHT22;8060;50.948;3.146;2024-03-06T03:11:48;7.60;99.90
15922;DHT22;8060;50.948;3.146;2024-03-06T03:14:16;7.60;99.90
15922;DHT22;8060;50.948;3.146;2024-03-06T03:16:45;7.60;99.90
15922;DHT22;8060;50.948;3.146;2024-03-06T03:19:13;7.60;99.90
15922;DHT22;8060;50.948;3.146;2024-03-06T03:21:44;7.60;99.90
15922;DHT22;8060;50.948;3.146;2024-03-06T03:24:12;7.60;99.90
15922;DHT22;8060;50.948;3.146;2024-03-06T03:26:40;7.60;99.90
15922;DHT22;8060;50.948;3.146;2024-03-06T03:29:10;7.70;99.90
15922;DHT22;8060;50.948;3.146;2024-03-06T03:31:38;7.70;99.90
15922;DHT22;8060;50.948;3.146;2024-03-06T03:34:06;7.70;99.90
15922;DHT22;8060;50.948;3.146;2024-03-06T03:36:39;7.70;99.90
15922;DHT22;8060;50.948;3.146;2024-03-06T03:39:07;7.70;99.90
15922;DHT22;8060;50.948;3.146;2024-03-06T03:41:43;7.70;99.90
15922;DHT22;8060;50.948;3.146;2024-03-06T03:44:13;7.70;99.90
15922;DHT22;8060;50.948;3.146;2024-03-06T03:46:42;7.70;99.90
15922;DHT22;8060;50.948;3.146;2024-03-06T03:49:11;7.70;99.90
15922;DHT22;8060;50.948;3.146;2024-03-06T03:51:40;7.60;99.90
15922;DHT22;8060;50.948;3.146;2024-03-06T03:54:08;7.70;99.90
15922;DHT22;8060;50.948;3.146;2024-03-06T03:56:36;7.70;99.90
15922;DHT22;8060;50.948;3.146;2024-03-06T03:59:04;7.70;99.90
15922;DHT22;8060;50.948;3.146;2024-03-06T04:01:34;7.70;99.90
15922;DHT22;8060;50.948;3.146;2024-03-06T04:04:02;7.70;99.90
15922;DHT22;8060;50.948;3.146;2024-03-06T04:06:30;7.70;99.90
15922;DHT22;8060;50.948;3.146;2024-03-06T04:08:58;7.70;99.90
15922;DHT22;8060;50.948;3.146;2024-03-06T04:11:26;7.70;99.90
15922;DHT22;8060;50.948;3.146;2024-03-06T04:13:54;7.70;99.90
15922;DHT22;8060;50.948;3.146;2024-03-06T04:16:23;7.70;99.90
15922;DHT22;8060;50.948;3.146;2024-03-06T04:18:52;7.70;99.90
15922;DHT22;8060;50.948;3.146;2024-03-06T04:21:20;7.70;99.90
15922;DHT22;8060;50.948;3.146;2024-03-06T04:23:49;7.70;99.90
15922;DHT22;8060;50.948;3.146;2024-03-06T04:26:17;7.70;99.90
15922;DHT22;8060;50.948;3.146;2024-03-06T04:28:45;7.80;99.90
15922;DHT22;8060;50.948;3.146;2024-03-06T04:31:13;7.70;99.90
15922;DHT22;8060;50.948;3.146;2024-03-06T04:33:41;7.70;99.90
15922;DHT22;8060;50.948;3.146;2024-03-06T04:36:11;7.70;99.90
15922;DHT22;8060;50.948;3.146;2024-03-06T04:38:39;7.70;99.90
15922;DHT22;8060;50.948;3.146;2024-03-06T04:41:08;7.70;99.90
15922;DHT22;8060;50.948;3.146;2024-03-06T04:43:37;7.70;99.90
15922;DHT22;8060;50.948;3.146;2024-03-06T04:46:05;7.70;99.90
15922;DHT22;8060;50.948;3.146;2024-03-06T04:48:33;7.60;99.90
15922;DHT22;8060;50.948;3.146;2024-03-06T04:51:02;7.60;99.90
15922;DHT22;8060;50.948;3.146;2024-03-06T04:53:31;7.60;99.90
15922;DHT22;8060;50.948;3.146;2024-03-06T04:55:59;7.50;99.90
15922;DHT22;8060;50.948;3.146;2024-03-06T04:58:27;7.50;99.90
15922;DHT22;8060;50.948;3.146;2024-03-06T05:00:56;7.50;99.90
15922;DHT22;8060;50.948;3.146;2024-03-06T05:03:24;7.50;99.90
15922;DHT22;8060;50.948;3.146;2024-03-06T05:06:09;7.50;99.90
15922;DHT22;8060;50.948;3.146;2024-03-06T05:08:56;7.50;99.90
15922;DHT22;8060;50.948;3.146;2024-03-06T05:11:42;7.50;99.90
15922;DHT22;8060;50.948;3.146;2024-03-06T05:14:27;7.50;99.90
15922;DHT22;8060;50.948;3.146;2024-03-06T05:17:13;7.50;99.90
15922;DHT22;8060;50.948;3.146;2024-03-06T05:19:59;7.50;99.90
15922;DHT22;8060;50.948;3.146;2024-03-06T05:22:44;7.50;99.90
15922;DHT22;8060;50.948;3.146;2024-03-06T05:25:31;7.50;99.90
15922;DHT22;8060;50.948;3.146;2024-03-06T05:28:17;7.50;99.90
15922;DHT22;8060;50.948;3.146;2024-03-06T05:31:15;7.50;99.90
15922;DHT22;8060;50.948;3.146;2024-03-06T05:34:02;7.50;99.90
15922;DHT22;8060;50.948;3.146;2024-03-06T05:36:49;7.50;99.90
15922;DHT22;8060;50.948;3.146;2024-03-06T05:39:34;7.50;99.90
15922;DHT22;8060;50.948;3.146;2024-03-06T05:42:22;7.50;99.90
15922;DHT22;8060;50.948;3.146;2024-03-06T05:45:08;7.40;99.90
15922;DHT22;8060;50.948;3.146;2024-03-06T05:47:56;7.50;99.90
15922;DHT22;8060;50.948;3.146;2024-03-06T05:50:42;7.50;99.90
15922;DHT22;8060;50.948;3.146;2024-03-06T05:53:28;7.50;99.90
15922;DHT22;8060;50.948;3.146;2024-03-06T05:56:14;7.50;99.90
15922;DHT22;8060;50.948;3.146;2024-03-06T05:59:01;7.50;99.90
15922;DHT22;8060;50.948;3.146;2024-03-06T06:01:31;7.40;99.90
15922;DHT22;8060;50.948;3.146;2024-03-06T06:04:00;7.40;99.90
15922;DHT22;8060;50.948;3.146;2024-03-06T06:06:32;7.40;99.90
15922;DHT22;8060;50.948;3.146;2024-03-06T06:09:01;7.30;99.90
15922;DHT22;8060;50.948;3.146;2024-03-06T06:11:30;7.30;99.90
15922;DHT22;8060;50.948;3.146;2024-03-06T06:13:58;7.30;99.90
15922;DHT22;8060;50.948;3.146;2024-03-06T06:16:34;7.30;99.90
15922;DHT22;8060;50.948;3.146;2024-03-06T06:19:03;7.30;99.90
15922;DHT22;8060;50.948;3.146;2024-03-06T06:21:32;7.20;99.90
15922;DHT22;8060;50.948;3.146;2024-03-06T06:24:02;7.20;99.90
15922;DHT22;8060;50.948;3.146;2024-03-06T06:26:31;7.20;99.90
15922;DHT22;8060;50.948;3.146;2024-03-06T06:28:59;7.20;99.90
15922;DHT22;8060;50.948;3.146;2024-03-06T06:31:29;7.20;99.90
15922;DHT22;8060;50.948;3.146;2024-03-06T06:33:57;7.20;99.90
15922;DHT22;8060;50.948;3.146;2024-03-06T06:36:25;7.20;99.90
15922;DHT22;8060;50.948;3.146;2024-03-06T06:38:54;7.20;99.90
15922;DHT22;8060;50.948;3.146;2024-03-06T06:41:22;7.20;99.90
15922;DHT22;8060;50.948;3.146;2024-03-06T06:43:50;7.20;99.90
15922;DHT22;8060;50.948;3.146;2024-03-06T06:46:19;7.30;99.90
15922;DHT22;8060;50.948;3.146;2024-03-06T06:48:49;7.30;99.90
15922;DHT22;8060;50.948;3.146;2024-03-06T06:51:17;7.40;99.90
15922;DHT22;8060;50.948;3.146;2024-03-06T06:53:45;7.40;99.90
15922;DHT22;8060;50.948;3.146;2024-03-06T06:56:13;7.40;99.90
15922;DHT22;8060;50.948;3.146;2024-03-06T06:58:41;7.40;99.90
15922;DHT22;8060;50.948;3.146;2024-03-06T07:01:10;7.40;99.90
15922;DHT22;8060;50.948;3.146;2024-03-06T07:03:38;7.40;99.90
15922;DHT22;8060;50.948;3.146;2024-03-06T07:06:08;7.40;99.90
15922;DHT22;8060;50.948;3.146;2024-03-06T07:08:37;7.40;99.90
15922;DHT22;8060;50.948;3.146;2024-03-06T07:11:05;7.50;99.90
15922;DHT22;8060;50.948;3.146;2024-03-06T07:13:34;7.50;99.90
15922;DHT22;8060;50.948;3.146;2024-03-06T07:16:03;7.60;99.90
15922;DHT22;8060;50.948;3.146;2024-03-06T07:18:31;7.60;99.90
15922;DHT22;8060;50.948;3.146;2024-03-06T07:21:00;7.70;99.90
15922;DHT22;8060;50.948;3.146;2024-03-06T07:23:29;7.80;99.90
15922;DHT22;8060;50.948;3.146;2024-03-06T07:25:57;7.80;99.90
15922;DHT22;8060;50.948;3.146;2024-03-06T07:28:26;7.90;99.90
15922;DHT22;8060;50.948;3.146;2024-03-06T07:30:54;7.90;99.90
15922;DHT22;8060;50.948;3.146;2024-03-06T07:33:22;7.90;99.90
15922;DHT22;8060;50.948;3.146;2024-03-06T07:35:50;7.90;99.90
15922;DHT22;8060;50.948;3.146;2024-03-06T07:38:18;7.90;99.90
15922;DHT22;8060;50.948;3.146;2024-03-06T07:40:49;7.90;99.90
15922;DHT22;8060;50.948;3.146;2024-03-06T07:43:17;7.90;99.90
15922;DHT22;8060;50.948;3.146;2024-03-06T07:45:45;7.90;99.90
15922;DHT22;8060;50.948;3.146;2024-03-06T07:48:14;8.00;99.90
15922;DHT22;8060;50.948;3.146;2024-03-06T07:50:42;8.10;99.90
15922;DHT22;8060;50.948;3.146;2024-03-06T07:53:11;8.20;99.90
15922;DHT22;8060;50.948;3.146;2024-03-06T07:55:39;8.20;99.90
15922;DHT22;8060;50.948;3.146;2024-03-06T07:58:08;8.30;99.90
15922;DHT22;8060;50.948;3.146;2024-03-06T08:00:37;8.40;99.90
15922;DHT22;8060;50.948;3.146;2024-03-06T08:03:05;8.50;99.90
15922;DHT22;8060;50.948;3.146;2024-03-06T08:05:33;8.60;99.90
15922;DHT22;8060;50.948;3.146;2024-03-06T08:08:02;8.60;99.90
15922;DHT22;8060;50.948;3.146;2024-03-06T08:10:31;8.60;99.90
15922;DHT22;8060;50.948;3.146;2024-03-06T08:13:00;8.70;99.90
15922;DHT22;8060;50.948;3.146;2024-03-06T08:15:31;8.80;99.90
15922;DHT22;8060;50.948;3.146;2024-03-06T08:17:59;9.00;99.90
15922;DHT22;8060;50.948;3.146;2024-03-06T08:20:27;9.10;99.90
15922;DHT22;8060;50.948;3.146;2024-03-06T08:22:56;9.30;99.90
15922;DHT22;8060;50.948;3.146;2024-03-06T08:25:24;9.40;99.90
15922;DHT22;8060;50.948;3.146;2024-03-06T08:27:53;9.60;99.90
15922;DHT22;8060;50.948;3.146;2024-03-06T08:30:21;9.60;99.90
15922;DHT22;8060;50.948;3.146;2024-03-06T08:32:51;9.60;99.90
15922;DHT22;8060;50.948;3.146;2024-03-06T08:35:19;9.60;99.90
15922;DHT22;8060;50.948;3.146;2024-03-06T08:37:49;9.60;99.90
15922;DHT22;8060;50.948;3.146;2024-03-06T08:40:17;9.70;99.90
15922;DHT22;8060;50.948;3.146;2024-03-06T08:42:46;9.70;99.90
15922;DHT22;8060;50.948;3.146;2024-03-06T08:45:16;9.70;99.90
15922;DHT22;8060;50.948;3.146;2024-03-06T08:47:45;9.60;99.90
15922;DHT22;8060;50.948;3.146;2024-03-06T08:50:16;9.40;99.90
15922;DHT22;8060;50.948;3.146;2024-03-06T08:52:45;9.20;99.90
15922;DHT22;8060;50.948;3.146;2024-03-06T08:55:13;9.20;99.90
15922;DHT22;8060;50.948;3.146;2024-03-06T08:57:41;9.10;99.90
15922;DHT22;8060;50.948;3.146;2024-03-06T09:00:10;9.10;99.90
15922;DHT22;8060;50.948;3.146;2024-03-06T09:02:39;9.20;99.90
15922;DHT22;8060;50.948;3.146;2024-03-06T09:05:09;9.20;99.90
15922;DHT22;8060;50.948;3.146;2024-03-06T09:07:41;9.30;99.90
15922;DHT22;8060;50.948;3.146;2024-03-06T09:10:10;9.50;99.90
15922;DHT22;8060;50.948;3.146;2024-03-06T09:12:38;9.40;99.90
15922;DHT22;8060;50.948;3.146;2024-03-06T09:15:07;9.50;99.90
15922;DHT22;8060;50.948;3.146;2024-03-06T09:17:35;9.50;99.90
15922;DHT22;8060;50.948;3.146;2024-03-06T09:20:05;9.50;99.90
15922;DHT22;8060;50.948;3.146;2024-03-06T09:22:38;9.50;99.90
15922;DHT22;8060;50.948;3.146;2024-03-06T09:25:08;9.60;99.90
15922;DHT22;8060;50.948;3.146;2024-03-06T09:27:37;9.60;99.90
15922;DHT22;8060;50.948;3.146;2024-03-06T09:30:06;9.70;99.90
15922;DHT22;8060;50.948;3.146;2024-03-06T09:32:37;9.80;99.90
15922;DHT22;8060;50.948;3.146;2024-03-06T09:35:06;9.90;99.90
15922;DHT22;8060;50.948;3.146;2024-03-06T09:37:34;10.10;99.90
15922;DHT22;8060;50.948;3.146;2024-03-06T09:40:03;10.30;99.90
15922;DHT22;8060;50.948;3.146;2024-03-06T09:42:33;10.50;99.90
15922;DHT22;8060;50.948;3.146;2024-03-06T09:45:01;11.00;99.90
15922;DHT22;8060;50.948;3.146;2024-03-06T09:47:31;11.60;99.90
15922;DHT22;8060;50.948;3.146;2024-03-06T09:50:00;12.30;99.90
15922;DHT22;8060;50.948;3.146;2024-03-06T09:52:34;12.70;99.90
15922;DHT22;8060;50.948;3.146;2024-03-06T09:55:03;13.10;99.90
15922;DHT22;8060;50.948;3.146;2024-03-06T09:57:33;13.30;99.90
15922;DHT22;8060;50.948;3.146;2024-03-06T10:00:03;13.60;99.90
15922;DHT22;8060;50.948;3.146;2024-03-06T10:02:37;13.90;99.90
15922;DHT22;8060;50.948;3.146;2024-03-06T10:05:20;14.20;99.90
15922;DHT22;8060;50.948;3.146;2024-03-06T10:07:50;14.50;99.90
15922;DHT22;8060;50.948;3.146;2024-03-06T10:10:19;14.40;99.90
15922;DHT22;8060;50.948;3.146;2024-03-06T10:12:51;14.10;99.90
15922;DHT22;8060;50.948;3.146;2024-03-06T10:15:19;13.90;99.90
15922;DHT22;8060;50.948;3.146;2024-03-06T10:17:48;14.00;99.90
15922;DHT22;8060;50.948;3.146;2024-03-06T10:20:21;14.10;99.90
15922;DHT22;8060;50.948;3.146;2024-03-06T10:22:50;14.10;99.90
15922;DHT22;8060;50.948;3.146;2024-03-06T10:25:24;14.30;99.90
15922;DHT22;8060;50.948;3.146;2024-03-06T10:28:08;14.10;99.90
15922;DHT22;8060;50.948;3.146;2024-03-06T10:30:38;14.00;99.90
15922;DHT22;8060;50.948;3.146;2024-03-06T10:33:10;13.80;99.90
15922;DHT22;8060;50.948;3.146;2024-03-06T10:35:40;13.90;99.90
15922;DHT22;8060;50.948;3.146;2024-03-06T10:38:09;14.30;99.90
15922;DHT22;8060;50.948;3.146;2024-03-06T10:40:39;14.80;99.90
15922;DHT22;8060;50.948;3.146;2024-03-06T10:43:10;15.20;99.90
15922;DHT22;8060;50.948;3.146;2024-03-06T10:45:41;15.40;99.90
15922;DHT22;8060;50.948;3.146;2024-03-06T10:48:13;15.90;99.90
15922;DHT22;8060;50.948;3.146;2024-03-06T10:50:44;16.70;99.90
15922;DHT22;8060;50.948;3.146;2024-03-06T10:53:14;17.20;99.90
15922;DHT22;8060;50.948;3.146;2024-03-06T10:55:49;17.30;99.90
15922;DHT22;8060;50.948;3.146;2024-03-06T10:58:20;18.00;99.90
15922;DHT22;8060;50.948;3.146;2024-03-06T11:00:48;17.70;99.90
15922;DHT22;8060;50.948;3.146;2024-03-06T11:03:16;17.80;99.90
15922;DHT22;8060;50.948;3.146;2024-03-06T11:05:45;18.20;99.90
15922;DHT22;8060;50.948;3.146;2024-03-06T11:08:15;17.60;99.90
15922;DHT22;8060;50.948;3.146;2024-03-06T11:10:44;16.90;99.90
15922;DHT22;8060;50.948;3.146;2024-03-06T11:13:23;16.60;99.90
15922;DHT22;8060;50.948;3.146;2024-03-06T11:15:57;15.80;99.90
15922;DHT22;8060;50.948;3.146;2024-03-06T11:18:44;15.30;99.90
15922;DHT22;8060;50.948;3.146;2024-03-06T11:21:29;14.90;99.90
15922;DHT22;8060;50.948;3.146;2024-03-06T11:24:14;14.70;99.90
15922;DHT22;8060;50.948;3.146;2024-03-06T11:26:45;14.60;99.90
15922;DHT22;8060;50.948;3.146;2024-03-06T11:29:17;14.50;99.90
15922;DHT22;8060;50.948;3.146;2024-03-06T11:32:04;14.40;99.90
15922;DHT22;8060;50.948;3.146;2024-03-06T11:34:35;14.20;99.90
15922;DHT22;8060;50.948;3.146;2024-03-06T11:37:05;14.40;99.90
15922;DHT22;8060;50.948;3.146;2024-03-06T11:39:34;14.40;99.90
15922;DHT22;8060;50.948;3.146;2024-03-06T11:42:04;14.50;99.90
15922;DHT22;8060;50.948;3.146;2024-03-06T11:44:37;14.50;99.90
15922;DHT22;8060;50.948;3.146;2024-03-06T11:47:07;14.70;99.90
15922;DHT22;8060;50.948;3.146;2024-03-06T11:49:36;15.30;99.90
15922;DHT22;8060;50.948;3.146;2024-03-06T11:52:06;16.10;99.90
15922;DHT22;8060;50.948;3.146;2024-03-06T11:54:35;16.10;99.90
15922;DHT22;8060;50.948;3.146;2024-03-06T11:57:04;16.00;99.90
15922;DHT22;8060;50.948;3.146;2024-03-06T11:59:34;16.20;99.90
15922;DHT22;8060;50.948;3.146;2024-03-06T12:02:06;16.20;99.90
15922;DHT22;8060;50.948;3.146;2024-03-06T12:04:37;15.70;99.90
15922;DHT22;8060;50.948;3.146;2024-03-06T12:07:06;15.40;99.90
15922;DHT22;8060;50.948;3.146;2024-03-06T12:09:38;15.20;99.90
15922;DHT22;8060;50.948;3.146;2024-03-06T12:12:09;15.20;99.90
15922;DHT22;8060;50.948;3.146;2024-03-06T12:14:39;14.90;99.90
15922;DHT22;8060;50.948;3.146;2024-03-06T12:17:13;14.50;99.90
15922;DHT22;8060;50.948;3.146;2024-03-06T12:19:43;14.70;99.90
15922;DHT22;8060;50.948;3.146;2024-03-06T12:22:13;15.50;99.90
15922;DHT22;8060;50.948;3.146;2024-03-06T12:24:42;16.00;99.90
15922;DHT22;8060;50.948;3.146;2024-03-06T12:27:10;16.30;99.90
15922;DHT22;8060;50.948;3.146;2024-03-06T12:29:40;16.30;99.90
15922;DHT22;8060;50.948;3.146;2024-03-06T12:32:17;16.10;99.90
15922;DHT22;8060;50.948;3.146;2024-03-06T12:34:56;15.90;99.90
15922;DHT22;8060;50.948;3.146;2024-03-06T12:37:30;15.60;99.90
15922;DHT22;8060;50.948;3.146;2024-03-06T12:39:59;15.30;99.90
15922;DHT22;8060;50.948;3.146;2024-03-06T12:42:28;15.10;99.90
15922;DHT22;8060;50.948;3.146;2024-03-06T12:44:56;15.30;99.90
15922;DHT22;8060;50.948;3.146;2024-03-06T12:47:26;16.20;99.90
15922;DHT22;8060;50.948;3.146;2024-03-06T12:49:54;16.60;99.90
15922;DHT22;8060;50.948;3.146;2024-03-06T12:52:22;16.90;99.90
15922;DHT22;8060;50.948;3.146;2024-03-06T12:54:50;16.60;99.90
15922;DHT22;8060;50.948;3.146;2024-03-06T12:57:19;16.20;99.90
15922;DHT22;8060;50.948;3.146;2024-03-06T12:59:47;16.20;99.90
15922;DHT22;8060;50.948;3.146;2024-03-06T13:02:15;16.00;99.90
15922;DHT22;8060;50.948;3.146;2024-03-06T13:04:45;15.90;99.90
15922;DHT22;8060;50.948;3.146;2024-03-06T13:07:13;15.80;99.90
15922;DHT22;8060;50.948;3.146;2024-03-06T13:09:41;15.70;99.90
15922;DHT22;8060;50.948;3.146;2024-03-06T13:12:09;15.90;99.90
15922;DHT22;8060;50.948;3.146;2024-03-06T13:14:38;16.30;99.90
15922;DHT22;8060;50.948;3.146;2024-03-06T13:17:06;16.20;99.90
15922;DHT22;8060;50.948;3.146;2024-03-06T13:19:34;16.20;99.90
15922;DHT22;8060;50.948;3.146;2024-03-06T13:22:04;16.20;99.90
15922;DHT22;8060;50.948;3.146;2024-03-06T13:24:34;16.30;99.90
15922;DHT22;8060;50.948;3.146;2024-03-06T13:27:07;17.10;99.90
15922;DHT22;8060;50.948;3.146;2024-03-06T13:29:36;18.20;99.90
15922;DHT22;8060;50.948;3.146;2024-03-06T13:32:04;19.20;99.90
15922;DHT22;8060;50.948;3.146;2024-03-06T13:34:32;19.00;99.90
15922;DHT22;8060;50.948;3.146;2024-03-06T13:37:01;18.60;99.90
15922;DHT22;8060;50.948;3.146;2024-03-06T13:39:30;18.10;99.90
15922;DHT22;8060;50.948;3.146;2024-03-06T13:41:58;17.60;99.90
15922;DHT22;8060;50.948;3.146;2024-03-06T13:44:27;17.00;99.90
15922;DHT22;8060;50.948;3.146;2024-03-06T13:46:55;16.70;99.90
15922;DHT22;8060;50.948;3.146;2024-03-06T13:49:35;16.40;99.90
15922;DHT22;8060;50.948;3.146;2024-03-06T13:52:04;16.20;99.90
15922;DHT22;8060;50.948;3.146;2024-03-06T13:54:35;15.90;99.90
15922;DHT22;8060;50.948;3.146;2024-03-06T13:57:04;15.80;99.90
15922;DHT22;8060;50.948;3.146;2024-03-06T13:59:33;15.70;99.90
15922;DHT22;8060;50.948;3.146;2024-03-06T14:02:02;15.60;99.90
15922;DHT22;8060;50.948;3.146;2024-03-06T14:04:30;15.80;99.90
15922;DHT22;8060;50.948;3.146;2024-03-06T14:06:59;16.30;99.90
15922;DHT22;8060;50.948;3.146;2024-03-06T14:09:27;16.50;99.90
15922;DHT22;8060;50.948;3.146;2024-03-06T14:11:57;17.30;99.90
15922;DHT22;8060;50.948;3.146;2024-03-06T14:14:26;17.90;99.90
15922;DHT22;8060;50.948;3.146;2024-03-06T14:16:55;17.60;99.90
15922;DHT22;8060;50.948;3.146;2024-03-06T14:19:23;17.20;99.90
15922;DHT22;8060;50.948;3.146;2024-03-06T14:21:52;16.90;99.90
15922;DHT22;8060;50.948;3.146;2024-03-06T14:24:20;16.40;99.90
15922;DHT22;8060;50.948;3.146;2024-03-06T14:26:48;16.20;99.90
15922;DHT22;8060;50.948;3.146;2024-03-06T14:29:18;16.40;99.90
15922;DHT22;8060;50.948;3.146;2024-03-06T14:31:46;16.90;99.90
15922;DHT22;8060;50.948;3.146;2024-03-06T14:34:14;17.90;99.90
15922;DHT22;8060;50.948;3.146;2024-03-06T14:36:42;19.10;99.90
15922;DHT22;8060;50.948;3.146;2024-03-06T14:39:10;20.60;99.90
15922;DHT22;8060;50.948;3.146;2024-03-06T14:41:40;20.80;99.90
15922;DHT22;8060;50.948;3.146;2024-03-06T14:44:11;20.50;99.90
15922;DHT22;8060;50.948;3.146;2024-03-06T14:46:42;19.90;99.90
15922;DHT22;8060;50.948;3.146;2024-03-06T14:49:10;20.10;99.90
15922;DHT22;8060;50.948;3.146;2024-03-06T14:51:38;21.00;99.90
15922;DHT22;8060;50.948;3.146;2024-03-06T14:54:06;21.90;99.90
15922;DHT22;8060;50.948;3.146;2024-03-06T14:56:34;22.30;99.90
15922;DHT22;8060;50.948;3.146;2024-03-06T14:59:03;21.50;99.90
15922;DHT22;8060;50.948;3.146;2024-03-06T15:01:31;21.10;99.90
15922;DHT22;8060;50.948;3.146;2024-03-06T15:04:05;21.10;99.90
15922;DHT22;8060;50.948;3.146;2024-03-06T15:06:33;21.40;99.90
15922;DHT22;8060;50.948;3.146;2024-03-06T15:09:01;21.80;99.90
15922;DHT22;8060;50.948;3.146;2024-03-06T15:11:31;22.30;99.90
15922;DHT22;8060;50.948;3.146;2024-03-06T15:14:00;22.90;99.90
15922;DHT22;8060;50.948;3.146;2024-03-06T15:16:30;23.00;99.90
15922;DHT22;8060;50.948;3.146;2024-03-06T15:18:58;22.90;99.90
15922;DHT22;8060;50.948;3.146;2024-03-06T15:21:31;23.20;99.90
15922;DHT22;8060;50.948;3.146;2024-03-06T15:24:01;23.00;98.80
15922;DHT22;8060;50.948;3.146;2024-03-06T15:26:32;22.90;98.60
15922;DHT22;8060;50.948;3.146;2024-03-06T15:29:02;23.00;98.00
15922;DHT22;8060;50.948;3.146;2024-03-06T15:31:33;22.90;98.80
15922;DHT22;8060;50.948;3.146;2024-03-06T15:34:01;22.60;97.60
15922;DHT22;8060;50.948;3.146;2024-03-06T15:36:31;22.40;98.70
15922;DHT22;8060;50.948;3.146;2024-03-06T15:38:59;22.10;98.30
15922;DHT22;8060;50.948;3.146;2024-03-06T15:41:27;21.40;98.80
15922;DHT22;8060;50.948;3.146;2024-03-06T15:43:56;21.30;99.00
15922;DHT22;8060;50.948;3.146;2024-03-06T15:46:24;20.70;99.20
15922;DHT22;8060;50.948;3.146;2024-03-06T15:48:53;20.60;99.90
15922;DHT22;8060;50.948;3.146;2024-03-06T15:51:21;20.30;99.90
15922;DHT22;8060;50.948;3.146;2024-03-06T15:53:51;19.70;99.90
15922;DHT22;8060;50.948;3.146;2024-03-06T15:56:22;19.30;99.90
15922;DHT22;8060;50.948;3.146;2024-03-06T15:58:50;18.80;99.90
15922;DHT22;8060;50.948;3.146;2024-03-06T16:01:19;18.70;99.90
15922;DHT22;8060;50.948;3.146;2024-03-06T16:03:47;18.20;99.90
15922;DHT22;8060;50.948;3.146;2024-03-06T16:06:19;17.90;99.90
15922;DHT22;8060;50.948;3.146;2024-03-06T16:08:57;17.70;99.90
15922;DHT22;8060;50.948;3.146;2024-03-06T16:11:26;17.40;99.90
15922;DHT22;8060;50.948;3.146;2024-03-06T16:13:55;17.20;99.90